sensor_id;sensor_type;location;lat;lon;timestamp;P1;durP1;ratioP1;P2;durP2;ratioP2
34557;SDS011;24708;48.888;8.736;2022-12-07T06:32:04;7.00;;;4.50;;
34557;SDS011;24708;48.888;8.736;2022-12-07T06:34:31;9.15;;;5.28;;
34557;SDS011;24708;48.888;8.736;2022-12-07T06:36:59;9.82;;;5.18;;
34557;SDS011;24708;48.888;8.736;2022-12-07T06:39:27;7.50;;;3.47;;
34557;SDS011;24708;48.888;8.736;2022-12-07T06:41:55;5.70;;;3.63;;
34557;SDS011;24708;48.888;8.736;2022-12-07T06:44:23;8.07;;;4.20;;
34557;SDS011;24708;48.888;8.736;2022-12-07T06:46:51;6.25;;;4.00;;
34557;SDS011;24708;48.888;8.736;2022-12-07T06:49:38;7.57;;;4.32;;
34557;SDS011;24708;48.888;8.736;2022-12-07T06:52:06;7.70;;;4.60;;
34557;SDS011;24708;48.888;8.736;2022-12-07T06:54:33;9.85;;;4.38;;
34557;SDS011;24708;48.888;8.736;2022-12-07T06:57:00;11.02;;;3.88;;
34557;SDS011;24708;48.888;8.736;2022-12-07T06:59:28;10.25;;;5.18;;
34557;SDS011;24708;48.888;8.736;2022-12-07T07:01:55;8.70;;;4.30;;
34557;SDS011;24708;48.888;8.736;2022-12-07T07:04:23;6.28;;;4.03;;
34557;SDS011;24708;48.888;8.736;2022-12-07T07:06:53;14.63;;;5.55;;
34557;SDS011;24708;48.888;8.736;2022-12-07T07:09:26;6.47;;;3.80;;
34557;SDS011;24708;48.888;8.736;2022-12-07T07:11:54;7.80;;;3.78;;
34557;SDS011;24708;48.888;8.736;2022-12-07T07:14:22;8.20;;;4.53;;
34557;SDS011;24708;48.888;8.736;2022-12-07T07:16:50;6.22;;;4.15;;
34557;SDS011;24708;48.888;8.736;2022-12-07T07:19:18;7.10;;;4.60;;
34557;SDS011;24708;48.888;8.736;2022-12-07T07:21:48;9.70;;;4.68;;
34557;SDS011;24708;48.888;8.736;2022-12-07T07:24:18;7.05;;;4.00;;
34557;SDS011;24708;48.888;8.736;2022-12-07T07:26:48;6.43;;;3.78;;
34557;SDS011;24708;48.888;8.736;2022-12-07T07:29:18;7.60;;;4.45;;
34557;SDS011;24708;48.888;8.736;2022-12-07T07:31:48;11.65;;;4.00;;
34557;SDS011;24708;48.888;8.736;2022-12-07T07:34:18;5.80;;;3.78;;
34557;SDS011;24708;48.888;8.736;2022-12-07T07:36:46;8.57;;;4.85;;
34557;SDS011;24708;48.888;8.736;2022-12-07T07:39:13;6.22;;;3.92;;
34557;SDS011;24708;48.888;8.736;2022-12-07T07:41:56;7.63;;;3.63;;
34557;SDS011;24708;48.888;8.736;2022-12-07T07:44:23;7.32;;;3.45;;
34557;SDS011;24708;48.888;8.736;2022-12-07T07:46:59;6.53;;;4.28;;
34557;SDS011;24708;48.888;8.736;2022-12-07T07:49:29;7.10;;;3.15;;
34557;SDS011;24708;48.888;8.736;2022-12-07T07:51:58;9.90;;;4.45;;
34557;SDS011;24708;48.888;8.736;2022-12-07T07:54:29;6.85;;;3.72;;
34557;SDS011;24708;48.888;8.736;2022-12-07T07:56:56;7.57;;;4.18;;
34557;SDS011;24708;48.888;8.736;2022-12-07T07:59:46;8.98;;;3.78;;
34557;SDS011;24708;48.888;8.736;2022-12-07T08:02:22;6.38;;;3.55;;
34557;SDS011;24708;48.888;8.736;2022-12-07T08:04:50;8.73;;;4.68;;
34557;SDS011;24708;48.888;8.736;2022-12-07T08:07:18;7.40;;;4.03;;
34557;SDS011;24708;48.888;8.736;2022-12-07T08:09:45;5.40;;;3.10;;
34557;SDS011;24708;48.888;8.736;2022-12-07T08:12:13;6.05;;;3.72;;
34557;SDS011;24708;48.888;8.736;2022-12-07T08:14:42;5.72;;;3.63;;
34557;SDS011;24708;48.888;8.736;2022-12-07T08:17:10;5.85;;;3.60;;
34557;SDS011;24708;48.888;8.736;2022-12-07T08:19:37;6.28;;;3.83;;
34557;SDS011;24708;48.888;8.736;2022-12-07T08:22:17;9.52;;;3.55;;
34557;SDS011;24708;48.888;8.736;2022-12-07T08:24:49;7.68;;;3.75;;
34557;SDS011;24708;48.888;8.736;2022-12-07T08:27:17;8.35;;;3.50;;
34557;SDS011;24708;48.888;8.736;2022-12-07T08:29:45;8.23;;;4.38;;
34557;SDS011;24708;48.888;8.736;2022-12-07T08:32:13;7.50;;;3.70;;
34557;SDS011;24708;48.888;8.736;2022-12-07T08:34:40;9.07;;;3.45;;
34557;SDS011;24708;48.888;8.736;2022-12-07T08:37:08;8.82;;;4.25;;
34557;SDS011;24708;48.888;8.736;2022-12-07T08:39:36;11.88;;;4.97;;
34557;SDS011;24708;48.888;8.736;2022-12-07T08:42:05;9.25;;;4.78;;
34557;SDS011;24708;48.888;8.736;2022-12-07T08:44:34;5.78;;;3.92;;
34557;SDS011;24708;48.888;8.736;2022-12-07T08:47:02;11.18;;;5.15;;
34557;SDS011;24708;48.888;8.736;2022-12-07T08:49:38;13.13;;;5.95;;
34557;SDS011;24708;48.888;8.736;2022-12-07T08:52:09;5.68;;;3.55;;
34557;SDS011;24708;48.888;8.736;2022-12-07T08:54:41;7.75;;;4.03;;
34557;SDS011;24708;48.888;8.736;2022-12-07T08:57:12;5.80;;;3.30;;
34557;SDS011;24708;48.888;8.736;2022-12-07T09:00:19;8.40;;;5.00;;
34557;SDS011;24708;48.888;8.736;2022-12-07T09:02:31;8.38;;;4.20;;
34557;SDS011;24708;48.888;8.736;2022-12-07T09:04:59;8.50;;;4.32;;
34557;SDS011;24708;48.888;8.736;2022-12-07T09:07:39;6.68;;;3.97;;
34557;SDS011;24708;48.888;8.736;2022-12-07T09:10:09;7.28;;;4.20;;
34557;SDS011;24708;48.888;8.736;2022-12-07T09:12:38;9.55;;;5.18;;
34557;SDS011;24708;48.888;8.736;2022-12-07T09:15:07;13.10;;;5.28;;
34557;SDS011;24708;48.888;8.736;2022-12-07T09:17:36;11.68;;;4.75;;
34557;SDS011;24708;48.888;8.736;2022-12-07T09:20:22;10.73;;;5.45;;
34557;SDS011;24708;48.888;8.736;2022-12-07T09:22:54;10.73;;;4.57;;
34557;SDS011;24708;48.888;8.736;2022-12-07T09:25:22;7.95;;;4.10;;
34557;SDS011;24708;48.888;8.736;2022-12-07T09:27:54;9.57;;;4.60;;
34557;SDS011;24708;48.888;8.736;2022-12-07T09:30:23;7.78;;;4.43;;
34557;SDS011;24708;48.888;8.736;2022-12-07T09:32:52;8.70;;;4.88;;
34557;SDS011;24708;48.888;8.736;2022-12-07T09:35:21;10.95;;;4.20;;
34557;SDS011;24708;48.888;8.736;2022-12-07T09:37:50;8.98;;;4.30;;
34557;SDS011;24708;48.888;8.736;2022-12-07T09:40:18;11.20;;;4.43;;
34557;SDS011;24708;48.888;8.736;2022-12-07T09:42:49;7.20;;;4.15;;
34557;SDS011;24708;48.888;8.736;2022-12-07T09:45:21;8.82;;;5.00;;
34557;SDS011;24708;48.888;8.736;2022-12-07T09:47:51;8.25;;;3.92;;
34557;SDS011;24708;48.888;8.736;2022-12-07T09:50:23;6.97;;;4.22;;
34557;SDS011;24708;48.888;8.736;2022-12-07T09:52:54;6.68;;;4.05;;
34557;SDS011;24708;48.888;8.736;2022-12-07T09:55:30;7.45;;;4.18;;
34557;SDS011;24708;48.888;8.736;2022-12-07T09:57:58;9.57;;;4.07;;
34557;SDS011;24708;48.888;8.736;2022-12-07T10:00:26;8.65;;;4.50;;
34557;SDS011;24708;48.888;8.736;2022-12-07T10:02:58;9.32;;;4.78;;
34557;SDS011;24708;48.888;8.736;2022-12-07T10:05:36;8.00;;;4.55;;
34557;SDS011;24708;48.888;8.736;2022-12-07T10:08:09;8.25;;;3.97;;
34557;SDS011;24708;48.888;8.736;2022-12-07T10:10:41;9.98;;;4.88;;
34557;SDS011;24708;48.888;8.736;2022-12-07T10:13:12;7.90;;;3.97;;
34557;SDS011;24708;48.888;8.736;2022-12-07T10:15:57;8.93;;;5.13;;
34557;SDS011;24708;48.888;8.736;2022-12-07T10:18:33;12.20;;;4.97;;
34557;SDS011;24708;48.888;8.736;2022-12-07T10:24:05;9.95;;;5.25;;
34557;SDS011;24708;48.888;8.736;2022-12-07T10:26:51;11.88;;;4.72;;
34557;SDS011;24708;48.888;8.736;2022-12-07T10:29:51;11.90;;;6.15;;
34557;SDS011;24708;48.888;8.736;2022-12-07T10:35:15;7.70;;;4.88;;
34557;SDS011;24708;48.888;8.736;2022-12-07T10:37:51;10.30;;;4.95;;
34557;SDS011;24708;48.888;8.736;2022-12-07T10:43:05;12.85;;;5.72;;
34557;SDS011;24708;48.888;8.736;2022-12-07T10:46:37;9.70;;;4.78;;
34557;SDS011;24708;48.888;8.736;2022-12-07T10:49:48;11.88;;;5.53;;
34557;SDS011;24708;48.888;8.736;2022-12-07T10:52:41;11.32;;;5.00;;
34557;SDS011;24708;48.888;8.736;2022-12-07T10:57:53;14.40;;;6.63;;
34557;SDS011;24708;48.888;8.736;2022-12-07T11:00:40;14.13;;;6.15;;
34557;SDS011;24708;48.888;8.736;2022-12-07T11:03:23;21.35;;;6.68;;
34557;SDS011;24708;48.888;8.736;2022-12-07T11:14:56;13.88;;;6.72;;
34557;SDS011;24708;48.888;8.736;2022-12-07T11:20:43;12.73;;;6.82;;
34557;SDS011;24708;48.888;8.736;2022-12-07T11:23:29;15.95;;;6.78;;
34557;SDS011;24708;48.888;8.736;2022-12-07T11:26:28;14.50;;;6.88;;
34557;SDS011;24708;48.888;8.736;2022-12-07T11:29:43;23.13;;;7.60;;
34557;SDS011;24708;48.888;8.736;2022-12-07T11:35:17;15.13;;;6.60;;
34557;SDS011;24708;48.888;8.736;2022-12-07T11:37:59;14.43;;;7.13;;
34557;SDS011;24708;48.888;8.736;2022-12-07T11:40:34;15.95;;;7.88;;
34557;SDS011;24708;48.888;8.736;2022-12-07T11:43:05;14.80;;;7.53;;
34557;SDS011;24708;48.888;8.736;2022-12-07T11:46:11;18.52;;;7.55;;
34557;SDS011;24708;48.888;8.736;2022-12-07T11:48:46;15.40;;;8.32;;
34557;SDS011;24708;48.888;8.736;2022-12-07T11:51:34;16.48;;;7.50;;
34557;SDS011;24708;48.888;8.736;2022-12-07T11:54:10;17.85;;;9.05;;
34557;SDS011;24708;48.888;8.736;2022-12-07T11:56:43;14.75;;;7.50;;
34557;SDS011;24708;48.888;8.736;2022-12-07T11:59:20;15.65;;;7.80;;
34557;SDS011;24708;48.888;8.736;2022-12-07T12:01:56;21.55;;;9.50;;
34557;SDS011;24708;48.888;8.736;2022-12-07T12:04:41;21.77;;;9.05;;
34557;SDS011;24708;48.888;8.736;2022-12-07T12:07:20;25.67;;;10.48;;
34557;SDS011;24708;48.888;8.736;2022-12-07T12:10:18;18.73;;;9.27;;
34557;SDS011;24708;48.888;8.736;2022-12-07T12:16:11;16.98;;;8.63;;
34557;SDS011;24708;48.888;8.736;2022-12-07T12:19:15;17.13;;;7.68;;
34557;SDS011;24708;48.888;8.736;2022-12-07T12:22:03;24.80;;;9.38;;
34557;SDS011;24708;48.888;8.736;2022-12-07T12:24:43;16.02;;;8.13;;
34557;SDS011;24708;48.888;8.736;2022-12-07T12:27:18;20.23;;;8.53;;
34557;SDS011;24708;48.888;8.736;2022-12-07T12:29:53;17.45;;;8.85;;
34557;SDS011;24708;48.888;8.736;2022-12-07T12:32:33;19.65;;;9.27;;
34557;SDS011;24708;48.888;8.736;2022-12-07T12:40:54;19.88;;;8.27;;
34557;SDS011;24708;48.888;8.736;2022-12-07T12:43:53;19.23;;;9.05;;
34557;SDS011;24708;48.888;8.736;2022-12-07T12:46:52;14.90;;;7.93;;
34557;SDS011;24708;48.888;8.736;2022-12-07T12:58:21;18.35;;;8.15;;
34557;SDS011;24708;48.888;8.736;2022-12-07T13:04:00;15.98;;;7.03;;
34557;SDS011;24708;48.888;8.736;2022-12-07T13:06:35;13.02;;;7.07;;
34557;SDS011;24708;48.888;8.736;2022-12-07T13:09:15;13.07;;;7.35;;
34557;SDS011;24708;48.888;8.736;2022-12-07T13:11:49;15.45;;;7.38;;
34557;SDS011;24708;48.888;8.736;2022-12-07T13:15:19;16.05;;;7.47;;
34557;SDS011;24708;48.888;8.736;2022-12-07T13:20:39;16.42;;;7.53;;
34557;SDS011;24708;48.888;8.736;2022-12-07T13:23:12;20.77;;;8.40;;
34557;SDS011;24708;48.888;8.736;2022-12-07T13:25:48;24.90;;;7.80;;
34557;SDS011;24708;48.888;8.736;2022-12-07T13:28:44;13.48;;;7.03;;
34557;SDS011;24708;48.888;8.736;2022-12-07T13:31:32;16.20;;;8.18;;
34557;SDS011;24708;48.888;8.736;2022-12-07T13:34:02;16.58;;;7.63;;
34557;SDS011;24708;48.888;8.736;2022-12-07T13:36:37;16.63;;;6.85;;
34557;SDS011;24708;48.888;8.736;2022-12-07T13:41:49;20.33;;;8.73;;
34557;SDS011;24708;48.888;8.736;2022-12-07T13:44:19;15.65;;;7.80;;
34557;SDS011;24708;48.888;8.736;2022-12-07T13:46:48;17.27;;;7.32;;
34557;SDS011;24708;48.888;8.736;2022-12-07T13:49:38;22.08;;;9.07;;
34557;SDS011;24708;48.888;8.736;2022-12-07T13:52:27;17.27;;;8.50;;
34557;SDS011;24708;48.888;8.736;2022-12-07T13:55:11;18.65;;;7.88;;
34557;SDS011;24708;48.888;8.736;2022-12-07T13:57:41;20.13;;;8.90;;
34557;SDS011;24708;48.888;8.736;2022-12-07T14:00:19;18.52;;;9.23;;
34557;SDS011;24708;48.888;8.736;2022-12-07T14:06:03;18.35;;;8.15;;
34557;SDS011;24708;48.888;8.736;2022-12-07T14:08:34;22.90;;;9.30;;
34557;SDS011;24708;48.888;8.736;2022-12-07T14:11:01;22.38;;;9.82;;
34557;SDS011;24708;48.888;8.736;2022-12-07T14:13:33;27.90;;;12.07;;
34557;SDS011;24708;48.888;8.736;2022-12-07T14:16:03;22.90;;;9.95;;
34557;SDS011;24708;48.888;8.736;2022-12-07T14:18:45;22.13;;;10.73;;
34557;SDS011;24708;48.888;8.736;2022-12-07T14:24:10;17.83;;;9.77;;
34557;SDS011;24708;48.888;8.736;2022-12-07T14:26:44;22.30;;;9.60;;
34557;SDS011;24708;48.888;8.736;2022-12-07T14:29:21;30.30;;;11.35;;
34557;SDS011;24708;48.888;8.736;2022-12-07T14:31:56;22.10;;;9.55;;
34557;SDS011;24708;48.888;8.736;2022-12-07T14:34:26;28.08;;;10.50;;
34557;SDS011;24708;48.888;8.736;2022-12-07T14:36:53;23.42;;;10.30;;
34557;SDS011;24708;48.888;8.736;2022-12-07T14:39:20;23.60;;;9.48;;
34557;SDS011;24708;48.888;8.736;2022-12-07T14:41:47;28.25;;;10.60;;
34557;SDS011;24708;48.888;8.736;2022-12-07T14:44:19;21.88;;;11.52;;
34557;SDS011;24708;48.888;8.736;2022-12-07T14:46:52;22.67;;;10.50;;
34557;SDS011;24708;48.888;8.736;2022-12-07T14:49:40;18.35;;;9.25;;
34557;SDS011;24708;48.888;8.736;2022-12-07T14:52:10;20.95;;;10.02;;
34557;SDS011;24708;48.888;8.736;2022-12-07T14:55:04;26.60;;;11.77;;
34557;SDS011;24708;48.888;8.736;2022-12-07T14:57:32;29.27;;;10.35;;
34557;SDS011;24708;48.888;8.736;2022-12-07T15:00:04;22.05;;;10.40;;
34557;SDS011;24708;48.888;8.736;2022-12-07T15:02:33;24.07;;;11.03;;
34557;SDS011;24708;48.888;8.736;2022-12-07T15:05:00;25.13;;;9.80;;
34557;SDS011;24708;48.888;8.736;2022-12-07T15:07:28;24.33;;;10.02;;
34557;SDS011;24708;48.888;8.736;2022-12-07T15:09:55;26.00;;;11.18;;
34557;SDS011;24708;48.888;8.736;2022-12-07T15:12:23;27.63;;;11.60;;
34557;SDS011;24708;48.888;8.736;2022-12-07T15:14:51;32.53;;;12.32;;
34557;SDS011;24708;48.888;8.736;2022-12-07T15:17:18;25.73;;;11.35;;
34557;SDS011;24708;48.888;8.736;2022-12-07T15:19:57;31.13;;;12.75;;
34557;SDS011;24708;48.888;8.736;2022-12-07T15:22:24;25.60;;;10.55;;
34557;SDS011;24708;48.888;8.736;2022-12-07T15:24:52;34.63;;;12.50;;
34557;SDS011;24708;48.888;8.736;2022-12-07T15:27:19;37.35;;;14.18;;
34557;SDS011;24708;48.888;8.736;2022-12-07T15:29:46;31.73;;;14.13;;
34557;SDS011;24708;48.888;8.736;2022-12-07T15:32:13;27.58;;;11.70;;
34557;SDS011;24708;48.888;8.736;2022-12-07T15:34:41;29.45;;;12.70;;
34557;SDS011;24708;48.888;8.736;2022-12-07T15:37:08;25.65;;;12.25;;
34557;SDS011;24708;48.888;8.736;2022-12-07T15:39:36;30.17;;;13.13;;
34557;SDS011;24708;48.888;8.736;2022-12-07T15:42:03;31.45;;;13.40;;
34557;SDS011;24708;48.888;8.736;2022-12-07T15:44:31;32.58;;;14.20;;
34557;SDS011;24708;48.888;8.736;2022-12-07T15:47:18;38.58;;;15.18;;
34557;SDS011;24708;48.888;8.736;2022-12-07T15:49:45;31.73;;;13.75;;
34557;SDS011;24708;48.888;8.736;2022-12-07T15:52:13;28.83;;;12.80;;
34557;SDS011;24708;48.888;8.736;2022-12-07T15:54:40;27.90;;;12.75;;
34557;SDS011;24708;48.888;8.736;2022-12-07T15:57:07;34.65;;;12.82;;
34557;SDS011;24708;48.888;8.736;2022-12-07T15:59:34;38.30;;;14.52;;
34557;SDS011;24708;48.888;8.736;2022-12-07T16:02:02;24.75;;;12.73;;
34557;SDS011;24708;48.888;8.736;2022-12-07T16:04:29;29.70;;;11.85;;
34557;SDS011;24708;48.888;8.736;2022-12-07T16:06:56;27.58;;;12.95;;
34557;SDS011;24708;48.888;8.736;2022-12-07T16:09:24;32.10;;;12.88;;
34557;SDS011;24708;48.888;8.736;2022-12-07T16:11:51;28.88;;;12.57;;
34557;SDS011;24708;48.888;8.736;2022-12-07T16:14:19;30.58;;;11.60;;
34557;SDS011;24708;48.888;8.736;2022-12-07T16:16:46;28.35;;;12.65;;
34557;SDS011;24708;48.888;8.736;2022-12-07T16:19:14;28.70;;;10.52;;
34557;SDS011;24708;48.888;8.736;2022-12-07T16:21:41;29.77;;;13.00;;
34557;SDS011;24708;48.888;8.736;2022-12-07T16:24:08;26.42;;;12.10;;
34557;SDS011;24708;48.888;8.736;2022-12-07T16:26:36;21.73;;;10.38;;
34557;SDS011;24708;48.888;8.736;2022-12-07T16:29:04;20.77;;;10.30;;
34557;SDS011;24708;48.888;8.736;2022-12-07T16:31:31;28.55;;;10.32;;
34557;SDS011;24708;48.888;8.736;2022-12-07T16:33:58;21.67;;;9.38;;
34557;SDS011;24708;48.888;8.736;2022-12-07T16:36:25;19.15;;;9.20;;
34557;SDS011;24708;48.888;8.736;2022-12-07T16:39:14;13.00;;;8.30;;
34557;SDS011;24708;48.888;8.736;2022-12-07T16:41:41;18.20;;;9.32;;
34557;SDS011;24708;48.888;8.736;2022-12-07T16:44:10;15.48;;;8.40;;
34557;SDS011;24708;48.888;8.736;2022-12-07T16:46:39;15.98;;;8.75;;
34557;SDS011;24708;48.888;8.736;2022-12-07T16:49:06;14.85;;;7.50;;
34557;SDS011;24708;48.888;8.736;2022-12-07T16:51:37;12.80;;;7.53;;
34557;SDS011;24708;48.888;8.736;2022-12-07T16:54:05;20.00;;;8.15;;
34557;SDS011;24708;48.888;8.736;2022-12-07T16:56:32;18.65;;;7.53;;
34557;SDS011;24708;48.888;8.736;2022-12-07T16:59:00;15.63;;;7.40;;
